createdAt,value
2019-03-10T00:00:39.327Z,6.07
2019-03-10T00:03:08.692Z,6.10
2019-03-10T00:05:38.363Z,6.73
2019-03-10T00:08:08.375Z,7.93
2019-03-10T00:10:37.836Z,8.60
2019-03-10T00:13:07.171Z,8.17
2019-03-10T00:15:36.561Z,5.90
2019-03-10T00:18:05.917Z,8.17
2019-03-10T00:20:35.291Z,6.90
2019-03-10T00:23:04.748Z,6.80
2019-03-10T00:25:34.122Z,7.37
2019-03-10T00:28:03.546Z,7.10
2019-03-10T00:30:32.951Z,6.63
2019-03-10T00:33:02.325Z,6.97
2019-03-10T00:35:31.680Z,6.60
2019-03-10T00:38:01.786Z,7.17
2019-03-10T00:41:06.148Z,6.50
2019-03-10T00:44:25.558Z,6.63
2019-03-10T00:47:47.978Z,6.90
2019-03-10T00:50:55.087Z,6.67
2019-03-10T00:53:24.444Z,5.90
2019-03-10T00:55:53.809Z,6.07
2019-03-10T00:58:23.192Z,7.70
2019-03-10T01:00:52.559Z,6.70
2019-03-10T01:03:21.923Z,6.57
2019-03-10T01:05:51.291Z,7.10
2019-03-10T01:08:20.927Z,7.20
2019-03-10T01:10:50.741Z,6.70
2019-03-10T01:13:20.815Z,6.77
2019-03-10T01:15:51.268Z,6.93
2019-03-10T01:18:23.539Z,6.70
2019-03-10T01:20:54.699Z,7.23
2019-03-10T01:23:24.047Z,7.37
2019-03-10T01:25:53.407Z,6.83
2019-03-10T01:28:23.122Z,6.87
2019-03-10T01:31:11.561Z,6.93
2019-03-10T01:34:20.653Z,7.20
2019-03-10T01:36:50.017Z,7.03
2019-03-10T01:39:19.888Z,8.10
2019-03-10T01:41:49.271Z,6.67
2019-03-10T01:44:18.638Z,7.10
2019-03-10T01:46:47.996Z,7.00
2019-03-10T01:49:18.217Z,7.40
2019-03-10T01:51:47.603Z,8.23
2019-03-10T02:14:32.549Z,9.10
2019-03-10T02:17:01.896Z,6.93
2019-03-10T02:19:31.327Z,6.00
2019-03-10T02:22:00.708Z,5.90
2019-03-10T02:24:30.130Z,6.13
2019-03-10T02:26:59.477Z,7.30
2019-03-10T02:29:28.846Z,5.67
2019-03-10T02:31:58.216Z,6.47
2019-03-10T02:34:29.204Z,7.13
2019-03-10T02:36:58.881Z,6.90
2019-03-10T02:39:28.223Z,7.77
2019-03-10T02:41:58.273Z,6.92
2019-03-10T02:44:27.624Z,6.60
2019-03-10T02:46:56.982Z,6.10
2019-03-10T02:49:26.357Z,6.33
2019-03-10T02:51:55.720Z,5.55
2019-03-10T02:54:25.087Z,6.50
2019-03-10T02:56:54.464Z,6.93
2019-03-10T02:59:24.194Z,7.40
2019-03-10T03:01:55.226Z,5.67
2019-03-10T03:04:24.579Z,6.07
2019-03-10T03:06:53.954Z,6.20
2019-03-10T03:09:23.311Z,5.67
2019-03-10T03:11:52.752Z,5.80
2019-03-10T03:14:22.111Z,4.80
2019-03-10T03:16:52.899Z,6.20
2019-03-10T03:19:22.302Z,5.37
2019-03-10T03:21:52.043Z,6.12
2019-03-10T03:24:21.417Z,5.30
2019-03-10T03:26:50.774Z,5.13
2019-03-10T03:29:20.155Z,5.43
2019-03-10T03:31:49.583Z,5.47
2019-03-10T03:34:18.992Z,5.67
2019-03-10T03:36:48.363Z,5.13
2019-03-10T03:39:32.923Z,5.03
2019-03-10T03:42:03.066Z,5.43
2019-03-10T03:44:32.841Z,5.93
2019-03-10T03:47:02.197Z,5.70
2019-03-10T03:49:34.522Z,5.00
2019-03-10T03:52:03.944Z,5.03
2019-03-10T03:54:33.302Z,5.77
2019-03-10T03:57:02.682Z,5.10
2019-03-10T03:59:32.053Z,5.40
2019-03-10T04:02:05.823Z,4.37
2019-03-10T04:04:35.223Z,5.10
2019-03-10T04:07:04.599Z,4.70
2019-03-10T04:09:33.955Z,4.23
2019-03-10T04:12:03.332Z,4.63
2019-03-10T04:14:32.681Z,4.73
2019-03-10T04:17:02.046Z,4.13
2019-03-10T04:19:33.076Z,4.53
2019-03-10T04:22:02.355Z,4.70
2019-03-10T04:24:31.704Z,4.27
2019-03-10T04:27:01.537Z,4.50
2019-03-10T04:29:30.885Z,4.30
2019-03-10T04:32:00.249Z,3.67
2019-03-10T04:34:29.607Z,4.30
2019-03-10T04:36:58.960Z,3.77
2019-03-10T04:39:31.049Z,3.27
2019-03-10T04:42:00.420Z,3.50
2019-03-10T04:44:29.785Z,2.90
2019-03-10T04:47:02.069Z,3.50
2019-03-10T04:49:31.788Z,3.43
2019-03-10T04:52:01.154Z,3.27
2019-03-10T04:54:32.142Z,3.40
2019-03-10T04:57:03.158Z,4.00
2019-03-10T04:59:32.520Z,4.13
2019-03-10T05:02:01.868Z,3.27
2019-03-10T05:04:31.764Z,3.17
2019-03-10T05:07:01.215Z,3.10
2019-03-10T05:09:30.580Z,3.20
2019-03-10T05:12:00.612Z,3.40
2019-03-10T05:14:29.972Z,2.87
2019-03-10T05:17:00.862Z,2.80
2019-03-10T05:19:30.244Z,3.30
2019-03-10T05:21:59.585Z,3.17
2019-03-10T05:24:28.935Z,3.60
2019-03-10T05:26:58.313Z,2.90
2019-03-10T05:29:29.311Z,3.13
2019-03-10T05:31:58.669Z,2.70
2019-03-10T05:34:28.086Z,3.27
2019-03-10T05:36:57.428Z,3.03
2019-03-10T05:39:26.787Z,3.00
2019-03-10T05:41:56.166Z,3.17
2019-03-10T05:44:25.516Z,3.30
2019-03-10T05:46:54.866Z,3.00
2019-03-10T05:49:24.839Z,2.63
2019-03-10T05:51:54.764Z,3.63
2019-03-10T05:54:24.120Z,2.87
2019-03-10T05:56:53.499Z,2.60
2019-03-10T05:59:22.854Z,2.97
2019-03-10T06:01:52.215Z,3.30
2019-03-10T06:04:21.586Z,3.27
2019-03-10T06:06:50.947Z,2.83
2019-03-10T06:09:20.302Z,3.20
2019-03-10T06:11:49.741Z,3.10
2019-03-10T06:14:19.099Z,3.30
2019-03-10T06:16:48.466Z,3.13
2019-03-10T06:19:18.530Z,3.37
2019-03-10T06:21:47.887Z,3.13
2019-03-10T06:24:17.230Z,2.60
2019-03-10T06:26:46.617Z,2.90
2019-03-10T06:29:15.955Z,2.33
2019-03-10T06:31:45.308Z,2.57
2019-03-10T06:34:14.679Z,2.40
2019-03-10T06:36:44.030Z,2.40
2019-03-10T06:39:13.391Z,2.53
2019-03-10T06:41:43.081Z,2.53
2019-03-10T06:44:12.421Z,3.00
2019-03-10T06:46:41.782Z,2.40
2019-03-10T06:49:11.205Z,2.50
2019-03-10T06:51:40.918Z,2.70
2019-03-10T06:54:10.257Z,2.50
2019-03-10T06:56:39.625Z,2.50
2019-03-10T06:59:08.976Z,2.60
2019-03-10T07:01:38.332Z,2.53
2019-03-10T07:04:07.756Z,2.43
2019-03-10T07:06:37.100Z,2.30
2019-03-10T07:09:06.445Z,2.87
2019-03-10T07:11:38.569Z,2.20
2019-03-10T07:14:07.915Z,2.23
2019-03-10T07:16:37.269Z,2.53
2019-03-10T07:19:06.627Z,2.23
2019-03-10T07:21:35.974Z,2.20
2019-03-10T07:24:05.327Z,2.50
2019-03-10T07:26:34.710Z,2.30
2019-03-10T07:29:11.701Z,2.27
2019-03-10T07:31:45.399Z,2.30
2019-03-10T07:34:16.397Z,1.90
2019-03-10T07:37:05.448Z,1.80
2019-03-10T07:39:39.607Z,2.63
2019-03-10T07:42:13.340Z,2.03
2019-03-10T07:44:59.598Z,2.27
2019-03-10T07:47:30.617Z,2.17
2019-03-10T07:50:07.797Z,1.93
2019-03-10T07:52:42.003Z,2.27
2019-03-10T07:55:32.655Z,2.00
2019-03-10T07:58:04.339Z,2.33
2019-03-10T08:00:35.354Z,2.10
2019-03-10T08:03:06.315Z,2.20
2019-03-10T08:05:40.317Z,2.00
2019-03-10T08:08:17.333Z,1.90
2019-03-10T08:10:50.889Z,2.27
2019-03-10T08:13:21.874Z,2.50
2019-03-10T08:15:52.870Z,2.37
2019-03-10T08:18:30.126Z,3.37
2019-03-10T08:21:01.111Z,2.30
2019-03-10T08:23:38.052Z,2.50
2019-03-10T08:26:17.933Z,2.73
2019-03-10T08:28:51.970Z,2.73
2019-03-10T08:31:38.359Z,2.50
2019-03-10T08:34:12.391Z,2.23
2019-03-10T08:36:43.383Z,2.60
2019-03-10T08:39:30.696Z,3.60
2019-03-10T08:42:20.140Z,3.17
2019-03-10T08:44:58.473Z,4.10
2019-03-10T08:47:29.461Z,4.47
2019-03-10T08:50:00.440Z,3.37
2019-03-10T08:52:38.365Z,3.53
2019-03-10T08:55:16.393Z,2.57
2019-03-10T08:57:50.490Z,2.40
2019-03-10T09:00:33.426Z,2.30
2019-03-10T09:03:04.426Z,2.23
2019-03-10T09:05:38.396Z,2.40
2019-03-10T09:08:12.697Z,2.70
2019-03-10T09:10:50.339Z,2.77
2019-03-10T09:13:30.480Z,2.80
2019-03-10T09:16:07.769Z,2.80
2019-03-10T09:18:41.435Z,2.97
2019-03-10T09:21:24.340Z,2.40
2019-03-10T09:23:58.402Z,2.80
2019-03-10T09:26:32.142Z,2.53
2019-03-10T09:29:11.897Z,2.57
2019-03-10T09:31:45.858Z,2.80
2019-03-10T09:34:32.746Z,3.10
2019-03-10T09:37:06.693Z,3.23
2019-03-10T09:39:53.158Z,3.50
2019-03-10T09:42:26.866Z,3.10
2019-03-10T09:45:00.859Z,3.40
2019-03-10T09:47:31.858Z,3.13
2019-03-10T09:50:09.091Z,4.53
2019-03-10T09:52:40.094Z,3.13
2019-03-10T09:55:28.094Z,2.50
2019-03-10T09:58:05.528Z,2.83
2019-03-10T10:00:38.035Z,2.53
2019-03-10T10:03:46.401Z,2.50
2019-03-10T10:06:20.018Z,3.20
2019-03-10T10:08:53.534Z,2.93
2019-03-10T10:11:28.171Z,2.30
2019-03-10T10:14:05.072Z,2.07
2019-03-10T10:16:48.408Z,2.17
2019-03-10T10:19:28.003Z,2.00
2019-03-10T10:22:07.898Z,2.03
2019-03-10T10:24:38.908Z,1.70
2019-03-10T10:27:09.911Z,2.10
2019-03-10T10:29:43.962Z,2.00
2019-03-10T10:32:18.070Z,2.20
2019-03-10T10:34:51.629Z,1.97
2019-03-10T10:37:25.610Z,2.20
2019-03-10T10:39:59.310Z,2.50
2019-03-10T10:42:30.309Z,2.77
2019-03-10T10:45:18.207Z,2.50
2019-03-10T10:48:07.508Z,2.10
2019-03-10T10:50:54.625Z,2.50
2019-03-10T10:53:28.306Z,2.57
2019-03-10T10:56:08.200Z,2.47
2019-03-10T10:58:44.687Z,2.33
2019-03-10T11:01:16.405Z,2.43
2019-03-10T11:04:03.321Z,2.20
2019-03-10T11:06:34.337Z,3.07
2019-03-10T11:09:09.770Z,3.03
2019-03-10T11:11:46.368Z,2.60
2019-03-10T11:14:17.361Z,3.03
2019-03-10T11:16:57.974Z,2.20
2019-03-10T11:19:31.891Z,2.23
2019-03-10T11:22:11.694Z,2.57
2019-03-10T11:24:42.712Z,2.20
2019-03-10T11:27:19.519Z,2.10
2019-03-10T11:30:06.952Z,2.43
2019-03-10T11:32:44.043Z,3.03
2019-03-10T11:35:15.214Z,2.40
2019-03-10T11:37:54.945Z,2.20
2019-03-10T11:40:25.947Z,2.20
2019-03-10T11:42:56.934Z,2.53
2019-03-10T11:45:30.730Z,2.43
2019-03-10T11:48:01.721Z,2.53
2019-03-10T11:50:32.719Z,2.60
2019-03-10T11:53:03.874Z,2.60
2019-03-10T11:55:47.273Z,3.07
2019-03-10T11:58:24.014Z,2.90
2019-03-10T12:01:03.754Z,2.63
2019-03-10T12:03:34.764Z,2.20
2019-03-10T12:06:14.951Z,2.67
2019-03-10T12:08:46.779Z,2.23
2019-03-10T12:11:16.381Z,2.43
2019-03-10T12:13:45.762Z,2.80
2019-03-10T12:16:15.129Z,2.00
2019-03-10T12:18:44.480Z,2.33
2019-03-10T12:21:13.838Z,2.30
2019-03-10T12:23:43.208Z,2.60
2019-03-10T12:26:12.572Z,2.70
2019-03-10T12:28:41.934Z,3.13
2019-03-10T12:31:11.464Z,2.70
2019-03-10T12:33:40.812Z,3.23
2019-03-10T12:36:10.223Z,2.70
2019-03-10T12:38:42.520Z,3.20
2019-03-10T12:41:11.880Z,2.53
2019-03-10T12:43:41.253Z,3.37
2019-03-10T12:46:10.638Z,3.50
2019-03-10T12:48:39.991Z,2.67
2019-03-10T12:51:09.363Z,3.33
2019-03-10T12:53:38.784Z,3.00
2019-03-10T12:56:08.142Z,3.10
2019-03-10T12:58:37.507Z,4.10
2019-03-10T13:01:07.466Z,3.07
2019-03-10T13:03:36.878Z,2.97
2019-03-10T13:06:06.825Z,3.20
2019-03-10T13:08:37.476Z,3.30
2019-03-10T13:11:06.945Z,3.60
2019-03-10T13:13:36.321Z,3.43
2019-03-10T13:16:06.371Z,3.50
2019-03-10T13:18:35.746Z,3.50
2019-03-10T13:21:05.175Z,3.23
2019-03-10T13:23:34.544Z,3.20
2019-03-10T13:26:03.906Z,3.17
2019-03-10T13:28:33.268Z,2.90
2019-03-10T13:31:22.341Z,3.37
2019-03-10T13:33:51.717Z,2.73
2019-03-10T13:36:21.083Z,3.43
2019-03-10T13:38:50.479Z,3.30
2019-03-10T13:41:19.849Z,5.00
2019-03-10T13:43:49.200Z,3.50
2019-03-10T13:46:18.578Z,4.20
2019-03-10T13:48:47.939Z,4.23
2019-03-10T13:51:17.303Z,3.60
2019-03-10T13:53:46.753Z,4.60
2019-03-10T13:56:16.110Z,3.70
2019-03-10T13:58:45.464Z,3.50
2019-03-10T14:01:14.919Z,3.47
2019-03-10T14:03:44.323Z,3.27
2019-03-10T14:06:13.646Z,3.20
2019-03-10T14:08:43.037Z,3.03
2019-03-10T14:11:12.706Z,3.40
2019-03-10T14:13:42.070Z,3.00
2019-03-10T14:16:11.487Z,2.90
2019-03-10T14:18:40.858Z,3.10
2019-03-10T14:21:10.221Z,2.57
2019-03-10T14:23:39.593Z,2.63
2019-03-10T14:26:09.018Z,3.43
2019-03-10T14:28:38.380Z,3.67
2019-03-10T14:31:07.747Z,3.70
2019-03-10T14:33:37.102Z,4.43
2019-03-10T14:36:06.527Z,3.67
2019-03-10T14:38:36.370Z,2.80
2019-03-10T14:41:05.931Z,2.87
2019-03-10T14:43:35.320Z,2.50
2019-03-10T14:46:05.667Z,2.35
2019-03-10T14:48:35.032Z,2.70
2019-03-10T14:51:04.528Z,2.07
2019-03-10T14:53:33.921Z,1.87
2019-03-10T14:56:03.279Z,1.47
2019-03-10T14:58:32.643Z,1.20
2019-03-10T15:01:02.329Z,1.43
2019-03-10T15:03:31.672Z,1.90
2019-03-10T15:06:01.027Z,2.60
2019-03-10T15:08:30.416Z,1.90
2019-03-10T15:10:59.760Z,2.20
2019-03-10T15:13:31.438Z,2.20
2019-03-10T15:16:00.828Z,1.97
2019-03-10T15:18:30.185Z,2.00
2019-03-10T15:20:59.543Z,2.37
2019-03-10T15:23:28.969Z,3.57
2019-03-10T15:25:58.331Z,1.50
2019-03-10T15:28:27.706Z,2.20
2019-03-10T15:30:57.109Z,2.10
2019-03-10T15:33:26.468Z,1.93
2019-03-10T15:35:55.831Z,2.30
2019-03-10T15:38:25.282Z,1.70
2019-03-10T15:40:54.646Z,1.90
2019-03-10T15:43:23.995Z,1.93
2019-03-10T15:45:54.359Z,11.83
2019-03-10T15:48:23.724Z,1.87
2019-03-10T15:50:53.094Z,2.33
2019-03-10T15:53:22.478Z,2.73
2019-03-10T15:55:51.919Z,3.43
2019-03-10T15:58:21.280Z,2.50
2019-03-10T16:00:50.666Z,2.00
2019-03-10T16:03:20.024Z,2.40
2019-03-10T16:05:49.408Z,2.10
2019-03-10T16:08:19.136Z,2.20
2019-03-10T16:10:48.559Z,1.97
2019-03-10T16:13:17.937Z,2.77
2019-03-10T16:15:47.584Z,2.30
2019-03-10T16:18:16.942Z,2.03
2019-03-10T16:20:46.295Z,1.80
2019-03-10T16:23:15.666Z,2.17
2019-03-10T16:25:48.004Z,1.83
2019-03-10T16:28:17.442Z,3.10
2019-03-10T16:30:46.842Z,2.80
2019-03-10T16:33:16.213Z,2.30
2019-03-10T16:35:45.574Z,2.20
2019-03-10T16:38:17.652Z,2.17
2019-03-10T16:40:47.023Z,2.37
2019-03-10T16:43:16.384Z,2.10
2019-03-10T16:45:45.768Z,2.22
2019-03-10T16:48:15.127Z,2.07
2019-03-10T16:50:46.044Z,2.10
2019-03-10T16:53:15.925Z,2.27
2019-03-10T16:55:45.299Z,2.03
2019-03-10T16:58:14.649Z,2.60
2019-03-10T17:00:44.032Z,1.90
2019-03-10T17:03:16.086Z,1.90
2019-03-10T17:05:45.459Z,2.53
2019-03-10T17:08:14.849Z,1.97
2019-03-10T17:10:44.774Z,2.00
2019-03-10T17:13:14.198Z,2.40
2019-03-10T17:15:47.162Z,1.80
2019-03-10T17:18:17.369Z,1.80
2019-03-10T17:20:46.718Z,1.80
2019-03-10T17:23:16.089Z,1.80
2019-03-10T17:25:45.446Z,1.87
2019-03-10T17:28:17.483Z,2.03
2019-03-10T17:30:46.849Z,1.70
2019-03-10T17:33:16.200Z,2.00
2019-03-10T17:35:45.568Z,2.20
2019-03-10T17:38:15.025Z,2.20
2019-03-10T17:40:47.127Z,2.10
2019-03-10T17:43:16.496Z,2.60
2019-03-10T17:45:45.964Z,2.20
2019-03-10T17:48:15.327Z,1.90
2019-03-10T17:50:44.699Z,2.30
2019-03-10T17:53:17.551Z,1.90
2019-03-10T17:55:46.898Z,2.10
2019-03-10T17:58:16.239Z,2.23
2019-03-10T18:00:45.621Z,2.10
2019-03-10T18:03:14.974Z,2.87
2019-03-10T18:05:47.305Z,2.03
2019-03-10T18:08:16.669Z,2.00
2019-03-10T18:10:46.025Z,2.07
2019-03-10T18:13:15.383Z,2.00
2019-03-10T18:15:45.594Z,2.77
2019-03-10T18:18:17.945Z,2.20
2019-03-10T18:20:48.757Z,2.53
2019-03-10T18:23:18.138Z,2.20
2019-03-10T18:25:47.507Z,2.20
2019-03-10T18:28:16.851Z,3.00
2019-03-10T18:30:49.915Z,2.27
2019-03-10T18:33:19.275Z,3.10
2019-03-10T18:35:48.641Z,3.70
2019-03-10T18:38:18.006Z,3.10
2019-03-10T18:40:47.361Z,2.77
2019-03-10T18:43:19.409Z,2.63
2019-03-10T18:45:48.857Z,2.93
2019-03-10T18:48:18.210Z,2.73
2019-03-10T18:50:47.586Z,2.80
2019-03-10T18:53:17.737Z,2.70
2019-03-10T18:55:47.111Z,3.70
2019-03-10T18:58:16.437Z,3.10
2019-03-10T19:00:45.812Z,2.90
2019-03-10T19:03:15.157Z,2.90
2019-03-10T19:05:45.179Z,3.00
2019-03-10T19:08:16.088Z,2.87
2019-03-10T19:10:45.435Z,3.30
2019-03-10T19:13:14.791Z,3.20
2019-03-10T19:15:44.449Z,2.67
2019-03-10T19:18:13.814Z,2.67
2019-03-10T19:20:44.810Z,3.13
2019-03-10T19:23:14.761Z,2.70
2019-03-10T19:25:44.126Z,3.07
2019-03-10T19:28:13.473Z,2.50
2019-03-10T19:30:42.847Z,2.80
2019-03-10T19:33:12.201Z,2.50
2019-03-10T19:35:41.560Z,2.77
2019-03-10T19:38:11.267Z,2.80
2019-03-10T19:40:40.617Z,2.45
2019-03-10T19:43:10.064Z,2.47
2019-03-10T19:45:39.434Z,2.57
2019-03-10T19:48:08.797Z,2.40
2019-03-10T19:50:38.176Z,2.50
2019-03-10T19:53:07.543Z,2.47
2019-03-10T19:55:36.903Z,2.30
2019-03-10T19:58:06.268Z,2.40
2019-03-10T20:00:35.784Z,2.92
2019-03-10T20:03:05.707Z,2.70
2019-03-10T20:05:35.064Z,3.37
2019-03-10T20:08:04.501Z,3.10
2019-03-10T20:10:33.856Z,2.80
2019-03-10T20:13:03.219Z,3.00
2019-03-10T20:15:32.607Z,2.60
2019-03-10T20:18:01.960Z,2.83
2019-03-10T20:20:34.601Z,2.90
2019-03-10T20:23:04.051Z,2.70
2019-03-10T20:25:33.680Z,2.60
2019-03-10T20:28:03.047Z,2.53
2019-03-10T20:30:32.417Z,2.50
2019-03-10T20:33:01.772Z,3.00
2019-03-10T20:35:31.132Z,3.20
2019-03-10T20:38:00.504Z,2.87
2019-03-10T20:40:30.138Z,3.33
2019-03-10T20:42:59.481Z,2.63
2019-03-10T20:45:29.222Z,2.83
2019-03-10T20:47:58.560Z,2.90
2019-03-10T20:50:27.915Z,2.70
2019-03-10T20:52:57.960Z,2.77
2019-03-10T20:55:27.306Z,2.23
2019-03-10T20:57:56.658Z,2.23
2019-03-10T21:00:29.798Z,2.30
2019-03-10T21:02:59.148Z,2.23
2019-03-10T21:05:28.539Z,2.42
2019-03-10T21:07:57.872Z,2.10
2019-03-10T21:10:28.165Z,1.90
2019-03-10T21:12:57.515Z,2.07
2019-03-10T21:15:26.944Z,2.00
2019-03-10T21:17:56.234Z,2.00
2019-03-10T21:20:26.589Z,2.10
2019-03-10T21:22:56.438Z,2.60
2019-03-10T21:25:27.613Z,2.60
2019-03-10T21:27:57.238Z,2.30
2019-03-10T21:30:33.099Z,2.13
2019-03-10T21:33:02.462Z,2.10
2019-03-10T21:35:33.391Z,2.10
2019-03-10T21:38:03.530Z,2.30
2019-03-10T21:40:34.329Z,2.20
2019-03-10T21:43:03.757Z,2.30
2019-03-10T21:45:33.400Z,2.47
2019-03-10T21:48:02.760Z,2.30
2019-03-10T21:50:32.100Z,2.30
2019-03-10T21:53:01.487Z,2.47
2019-03-10T21:55:30.836Z,2.77
2019-03-10T21:58:00.209Z,2.80
2019-03-10T22:00:30.091Z,2.40
2019-03-10T22:02:59.487Z,2.80
2019-03-10T22:05:28.833Z,2.73
2019-03-10T22:07:58.236Z,3.17
2019-03-10T22:10:28.147Z,3.10
2019-03-10T22:12:57.622Z,3.30
2019-03-10T22:15:26.989Z,3.60
2019-03-10T22:17:56.324Z,3.37
2019-03-10T22:20:25.689Z,3.30
2019-03-10T22:22:55.642Z,3.60
2019-03-10T22:25:24.986Z,3.30
2019-03-10T22:27:54.349Z,3.67
2019-03-10T22:30:25.004Z,3.90
2019-03-10T22:32:54.362Z,3.90
2019-03-10T22:35:23.713Z,3.77
2019-03-10T22:37:53.087Z,3.87
2019-03-10T22:40:22.444Z,3.90
2019-03-10T22:42:51.792Z,3.77
2019-03-10T22:45:22.068Z,4.17
2019-03-10T22:47:51.420Z,4.40
2019-03-10T22:50:20.790Z,4.57
2019-03-10T22:52:50.141Z,4.30
2019-03-10T22:55:19.492Z,4.20
2019-03-10T22:57:48.844Z,4.73
2019-03-10T23:00:47.215Z,4.60
2019-03-10T23:03:16.562Z,4.80
2019-03-10T23:05:45.928Z,4.70
2019-03-10T23:08:15.279Z,5.13
2019-03-10T23:10:44.696Z,5.20
2019-03-10T23:13:14.064Z,5.63
2019-03-10T23:15:43.588Z,4.73
2019-03-10T23:18:14.596Z,5.37
2019-03-10T23:20:43.961Z,5.57
2019-03-10T23:23:13.769Z,5.37
2019-03-10T23:25:43.122Z,5.40
2019-03-10T23:28:12.478Z,5.87
2019-03-10T23:30:41.852Z,6.50
2019-03-10T23:33:11.817Z,6.07
2019-03-10T23:35:41.178Z,5.83
2019-03-10T23:38:10.547Z,6.07
2019-03-10T23:40:39.895Z,6.57
2019-03-10T23:43:09.262Z,6.70
2019-03-10T23:45:40.202Z,6.70
2019-03-10T23:48:09.556Z,6.63
2019-03-10T23:50:38.908Z,6.03
2019-03-10T23:53:08.316Z,5.93
2019-03-10T23:55:37.695Z,5.47
2019-03-10T23:58:07.049Z,6.00
